Time;durP1;ratioP1;P1;durP2;ratioP2;P2;SDS_P1;SDS_P2;PMS_P1;PMS_P2;Temp;Humidity;BMP_temperature;BMP_pressure;BME280_temperature;BME280_humidity;BME280_pressure;Samples;Min_cycle;Max_cycle;Signal;HPM_P1;HPM_P2
2022/03/17 00:00:11;;;;;;;3.23;2.93;;;18.70;38.50;;;;;;5000645;28;20469;-63
2022/03/17 00:02:38;;;;;;;2.70;2.50;;;18.70;38.50;;;;;;4997226;28;20263;-64
2022/03/17 00:05:06;;;;;;;2.50;2.30;;;18.70;38.50;;;;;;4998442;28;20962;-62
2022/03/17 00:07:32;;;;;;;3.30;3.10;;;18.70;38.50;;;;;;5002238;28;20477;-63
2022/03/17 00:09:58;;;;;;;2.60;2.40;;;18.70;38.60;;;;;;4994519;28;20451;-63
2022/03/17 00:12:23;;;;;;;3.20;3.00;;;18.70;38.60;;;;;;5001095;28;20227;-63
2022/03/17 00:14:51;;;;;;;2.80;2.60;;;18.70;38.60;;;;;;4998380;28;20225;-63
2022/03/17 00:17:17;;;;;;;2.97;2.83;;;18.70;38.60;;;;;;5001519;28;20306;-64
2022/03/17 00:19:43;;;;;;;3.00;2.77;;;18.70;38.60;;;;;;4996388;28;20835;-63
2022/03/17 00:22:08;;;;;;;3.83;2.47;;;18.70;38.60;;;;;;4996361;28;20236;-64
2022/03/17 00:24:36;;;;;;;3.13;2.93;;;18.70;38.60;;;;;;4997573;28;20221;-63
2022/03/17 00:27:05;;;;;;;2.73;2.63;;;18.70;38.60;;;;;;4997914;28;20232;-64
2022/03/17 00:29:32;;;;;;;3.03;2.17;;;18.70;38.60;;;;;;5001109;28;20461;-63
2022/03/17 00:31:57;;;;;;;2.90;2.70;;;18.70;38.60;;;;;;5004430;28;20456;-63
2022/03/17 00:34:23;;;;;;;2.67;2.47;;;18.70;38.60;;;;;;4997786;28;20453;-63
2022/03/17 00:36:48;;;;;;;3.07;2.87;;;18.70;38.60;;;;;;5001498;28;20247;-63
2022/03/17 00:39:15;;;;;;;3.07;2.90;;;18.70;38.70;;;;;;4996588;28;20223;-63
2022/03/17 00:41:42;;;;;;;2.97;2.77;;;18.70;38.60;;;;;;4997208;28;20665;-63
2022/03/17 00:44:07;;;;;;;3.20;3.00;;;18.70;38.60;;;;;;4998916;28;20486;-63
2022/03/17 00:46:33;;;;;;;2.70;2.60;;;18.70;38.60;;;;;;5003096;28;20537;-63
2022/03/17 00:48:59;;;;;;;2.60;2.40;;;18.70;38.60;;;;;;5002181;28;20246;-63
2022/03/17 00:51:25;;;;;;;3.10;2.90;;;18.70;39.50;;;;;;5006456;28;22773;-63
2022/03/17 00:53:50;;;;;;;2.93;2.73;;;18.70;38.70;;;;;;5000472;28;20235;-63
2022/03/17 00:56:16;;;;;;;2.60;2.50;;;18.70;38.70;;;;;;5002139;28;20636;-63
2022/03/17 00:58:45;;;;;;;3.20;3.00;;;18.70;38.60;;;;;;4998157;28;20220;-63
2022/03/17 01:01:13;;;;;;;2.90;2.80;;;18.70;38.70;;;;;;5012523;28;20231;-63
2022/03/17 01:03:39;;;;;;;3.27;3.07;;;18.70;38.70;;;;;;5002292;28;20513;-64
2022/03/17 01:06:05;;;;;;;2.90;2.70;;;18.70;38.70;;;;;;5005637;28;20456;-63
2022/03/17 01:08:30;;;;;;;3.03;2.83;;;18.70;38.60;;;;;;5006315;28;20451;-64
2022/03/17 01:10:56;;;;;;;3.40;3.20;;;18.70;38.60;;;;;;5003238;28;20224;-63
2022/03/17 01:13:22;;;;;;;2.80;2.60;;;18.70;38.60;;;;;;5002289;28;20241;-63
2022/03/17 01:15:47;;;;;;;3.00;2.80;;;18.70;38.70;;;;;;5002907;28;20319;-63
2022/03/17 01:18:13;;;;;;;2.57;2.47;;;18.70;38.60;;;;;;4999918;28;20777;-63
2022/03/17 01:20:38;;;;;;;2.73;2.60;;;18.70;38.60;;;;;;5001967;28;20220;-63
2022/03/17 01:23:06;;;;;;;2.93;2.80;;;18.70;38.60;;;;;;5003850;28;20240;-62
2022/03/17 01:25:32;;;;;;;2.80;2.60;;;18.70;38.70;;;;;;5001084;28;20311;-62
2022/03/17 01:27:57;;;;;;;3.47;3.27;;;18.70;38.60;;;;;;5004166;28;20457;-63
2022/03/17 01:30:23;;;;;;;3.30;3.10;;;18.70;38.70;;;;;;5000033;28;20467;-63
2022/03/17 01:32:48;;;;;;;2.87;2.77;;;18.70;38.70;;;;;;5002936;28;20231;-63
2022/03/17 01:35:14;;;;;;;3.00;2.80;;;18.70;38.70;;;;;;5002116;28;20220;-62
2022/03/17 01:37:40;;;;;;;3.07;2.87;;;18.70;38.70;;;;;;5004841;28;20223;-63
2022/03/17 01:40:08;;;;;;;2.77;2.67;;;18.70;38.70;;;;;;5003746;28;20228;-63
2022/03/17 01:42:34;;;;;;;3.30;3.10;;;18.70;38.70;;;;;;5002829;28;20681;-63
2022/03/17 01:44:59;;;;;;;3.60;3.30;;;18.70;39.50;;;;;;5001572;28;20516;-63
2022/03/17 01:47:28;;;;;;;2.80;2.60;;;18.70;38.70;;;;;;5002806;28;20298;-63
2022/03/17 01:50:03;;;;;;;2.63;2.50;;;18.70;38.70;;;;;;5006528;28;20220;-62
2022/03/17 01:52:28;;;;;;;3.50;3.20;;;18.70;38.70;;;;;;5000805;28;22032;-63
2022/03/17 01:54:54;;;;;;;2.83;2.73;;;18.70;38.70;;;;;;4999626;28;20464;-63
2022/03/17 01:57:21;;;;;;;3.13;2.93;;;18.70;38.70;;;;;;4998510;28;20227;-63
2022/03/17 01:59:48;;;;;;;3.33;3.10;;;18.70;38.70;;;;;;5002251;28;20595;-62
2022/03/17 02:02:15;;;;;;;3.27;3.07;;;18.70;38.70;;;;;;5001281;28;20959;-63
2022/03/17 02:04:41;;;;;;;2.53;2.37;;;18.70;38.80;;;;;;4998726;28;20477;-63
2022/03/17 02:07:08;;;;;;;3.17;2.97;;;18.70;38.70;;;;;;4999548;28;20521;-63
2022/03/17 02:09:35;;;;;;;2.77;2.63;;;18.70;38.70;;;;;;5002782;28;20446;-63
2022/03/17 02:15:06;;;;;;;2.73;2.53;;;18.70;38.70;;;;;;4997907;28;21091;-63
2022/03/17 02:17:33;;;;;;;3.40;3.20;;;18.70;38.70;;;;;;5000204;28;20988;-63
2022/03/17 02:20:01;;;;;;;3.00;2.80;;;18.70;38.70;;;;;;5009676;28;20494;-61
2022/03/17 02:22:28;;;;;;;3.20;3.00;;;18.70;38.70;;;;;;4996562;28;20450;-63
2022/03/17 02:27:46;;;;;;;2.77;2.67;;;18.70;38.70;;;;;;5001972;28;21201;-63
2022/03/17 02:30:15;;;;;;;3.07;2.87;;;18.70;38.70;;;;;;4998589;28;20427;-63
2022/03/17 02:32:42;;;;;;;3.43;3.23;;;18.70;38.80;;;;;;4999283;28;20514;-63
2022/03/17 02:35:13;;;;;;;3.97;3.67;;;18.70;38.70;;;;;;4994493;28;20463;-63
2022/03/17 02:37:39;;;;;;;3.00;2.83;;;18.70;38.80;;;;;;5000304;28;20945;-63
2022/03/17 02:40:08;;;;;;;3.33;3.20;;;18.70;38.70;;;;;;4997394;28;20909;-62
2022/03/17 02:42:34;;;;;;;3.03;2.83;;;18.70;38.70;;;;;;4999940;28;20814;-62
2022/03/17 02:45:01;;;;;;;3.70;3.50;;;18.70;38.70;;;;;;4998463;28;20476;-63
2022/03/17 02:47:27;;;;;;;3.10;2.90;;;18.70;38.70;;;;;;4994708;28;20231;-63
2022/03/17 02:49:57;;;;;;;3.23;3.03;;;18.70;38.70;;;;;;4995922;28;20454;-63
2022/03/17 02:52:24;;;;;;;3.57;3.37;;;18.70;38.70;;;;;;4994294;28;20450;-62
2022/03/17 02:54:51;;;;;;;3.27;3.07;;;18.70;38.70;;;;;;4996681;28;20516;-62
2022/03/17 02:57:18;;;;;;;3.40;3.10;;;18.70;38.70;;;;;;4995035;28;20446;-63
2022/03/17 02:59:44;;;;;;;3.20;3.00;;;18.70;38.70;;;;;;5000141;28;20433;-62
2022/03/17 03:02:09;;;;;;;2.97;2.87;;;18.70;38.80;;;;;;4999675;28;20462;-63
2022/03/17 03:04:35;;;;;;;3.37;3.17;;;18.70;38.80;;;;;;5000698;28;20291;-62
2022/03/17 03:07:06;;;;;;;3.40;3.20;;;18.70;38.70;;;;;;4996283;28;20223;-63
2022/03/17 03:09:32;;;;;;;3.33;3.10;;;18.70;38.80;;;;;;4994358;28;20223;-62
2022/03/17 03:11:58;;;;;;;3.83;3.63;;;18.70;38.80;;;;;;4998345;28;20458;-63
2022/03/17 03:14:23;;;;;;;4.13;3.47;;;18.70;38.80;;;;;;4998393;28;20427;-63
2022/03/17 03:16:50;;;;;;;3.50;3.30;;;18.70;38.80;;;;;;4996193;28;20227;-63
2022/03/17 03:19:16;;;;;;;3.30;3.10;;;18.70;38.70;;;;;;4994880;28;20653;-64
2022/03/17 03:21:45;;;;;;;3.00;2.80;;;18.70;38.80;;;;;;4998311;28;20437;-63
2022/03/17 03:24:15;;;;;;;3.07;2.93;;;18.70;38.80;;;;;;5000175;28;20449;-63
2022/03/17 03:26:41;;;;;;;3.10;2.90;;;18.60;38.60;;;;;;4996200;28;20472;-63
2022/03/17 03:29:25;;;;;;;3.20;3.00;;;18.70;38.70;;;;;;4999616;28;20505;-63
2022/03/17 03:31:52;;;;;;;3.60;3.40;;;18.70;38.80;;;;;;4996078;28;20541;-62
2022/03/17 03:34:19;;;;;;;3.50;3.30;;;18.60;38.70;;;;;;4995952;28;21047;-63
2022/03/17 03:39:29;;;;;;;3.30;3.00;;;18.70;38.80;;;;;;5000389;28;20983;-63
2022/03/17 03:41:56;;;;;;;3.40;3.20;;;18.60;38.70;;;;;;4994024;28;20438;-62
2022/03/17 03:44:21;;;;;;;3.53;3.33;;;18.60;38.70;;;;;;4994791;28;20225;-62
2022/03/17 03:46:47;;;;;;;3.03;2.93;;;18.60;38.70;;;;;;5000038;28;20822;-63
2022/03/17 03:49:13;;;;;;;3.17;2.97;;;18.60;38.70;;;;;;4999836;28;20676;-62
2022/03/17 03:51:38;;;;;;;3.20;3.10;;;18.60;38.70;;;;;;4994889;28;20220;-62
2022/03/17 03:54:13;;;;;;;3.50;3.30;;;18.60;38.70;;;;;;5001521;28;20254;-62
2022/03/17 03:56:40;;;;;;;3.10;2.90;;;18.60;38.60;;;;;;4996152;28;20302;-62
2022/03/17 03:59:12;;;;;;;3.50;3.30;;;18.60;38.70;;;;;;4999857;28;20420;-61
2022/03/17 04:01:37;;;;;;;3.47;3.27;;;18.60;38.70;;;;;;4996749;28;20499;-62
2022/03/17 04:04:03;;;;;;;3.00;2.90;;;18.60;38.70;;;;;;5001796;28;20524;-60
2022/03/17 04:06:29;;;;;;;3.37;3.17;;;18.60;38.70;;;;;;4997565;28;20747;-62
2022/03/17 04:08:55;;;;;;;3.90;3.70;;;18.60;38.70;;;;;;4998522;28;20232;-62
2022/03/17 04:11:20;;;;;;;3.47;3.27;;;18.60;38.70;;;;;;4996984;28;20449;-62
2022/03/17 04:13:46;;;;;;;3.40;3.20;;;18.70;38.80;;;;;;4998284;28;20594;-62
2022/03/17 04:16:12;;;;;;;3.23;3.03;;;18.60;38.70;;;;;;5000669;28;20219;-61
2022/03/17 04:18:38;;;;;;;3.47;3.27;;;18.60;38.70;;;;;;4999218;28;20224;-63
2022/03/17 04:21:04;;;;;;;3.80;3.20;;;18.60;38.70;;;;;;5001290;28;20247;-63
2022/03/17 04:23:29;;;;;;;3.30;3.10;;;18.60;38.70;;;;;;5001520;28;20442;-61
2022/03/17 04:25:55;;;;;;;3.43;3.27;;;18.60;38.70;;;;;;5005947;28;25033;-62
2022/03/17 04:28:20;;;;;;;3.50;3.30;;;18.60;38.70;;;;;;5001049;28;20220;-61
2022/03/17 04:30:46;;;;;;;3.33;3.13;;;18.60;38.70;;;;;;4999264;28;20316;-61
2022/03/17 04:33:11;;;;;;;3.10;2.90;;;18.60;38.70;;;;;;4997499;28;20248;-66
2022/03/17 04:35:37;;;;;;;3.27;3.07;;;18.60;39.50;;;;;;4998577;28;20216;-63
2022/03/17 04:38:02;;;;;;;3.80;3.60;;;18.60;38.70;;;;;;5000991;28;20220;-63
2022/03/17 04:40:28;;;;;;;3.70;3.50;;;18.60;38.70;;;;;;5006519;28;20423;-63
2022/03/17 04:42:54;;;;;;;3.60;3.40;;;18.60;38.80;;;;;;4999011;28;20724;-63
2022/03/17 04:45:20;;;;;;;3.97;3.77;;;18.60;38.80;;;;;;5000629;28;20207;-62
2022/03/17 04:47:46;;;;;;;4.27;4.07;;;18.60;38.70;;;;;;5001352;28;20232;-62
2022/03/17 04:50:11;;;;;;;4.00;3.80;;;18.60;38.70;;;;;;4997585;28;20460;-62
2022/03/17 04:55:22;;;;;;;3.33;3.13;;;18.70;38.80;;;;;;4998302;28;20243;-62
2022/03/17 04:57:47;;;;;;;4.23;3.93;;;18.60;38.70;;;;;;5002640;28;20487;-63
2022/03/17 05:00:14;;;;;;;3.50;3.30;;;18.60;38.80;;;;;;5003405;28;20465;-62
2022/03/17 05:02:39;;;;;;;3.93;3.73;;;18.60;38.80;;;;;;5001727;28;20240;-63
2022/03/17 05:05:05;;;;;;;4.03;3.83;;;18.60;38.80;;;;;;4996004;28;20446;-62
2022/03/17 05:07:31;;;;;;;3.33;3.13;;;18.60;38.80;;;;;;4997849;28;20239;-61
2022/03/17 05:09:57;;;;;;;3.40;3.20;;;18.60;38.80;;;;;;4999738;28;20466;-63
2022/03/17 05:12:22;;;;;;;3.60;3.40;;;18.60;38.80;;;;;;5000859;28;20296;-63
2022/03/17 05:14:48;;;;;;;3.37;3.17;;;18.60;38.70;;;;;;4999795;28;20428;-64
2022/03/17 05:17:13;;;;;;;3.60;3.40;;;18.60;38.80;;;;;;5005413;28;20673;-64
2022/03/17 05:19:39;;;;;;;4.20;3.90;;;18.60;39.50;;;;;;4997122;28;20251;-64
2022/03/17 05:22:05;;;;;;;3.50;3.30;;;18.60;38.70;;;;;;4998564;28;20683;-64
2022/03/17 05:24:32;;;;;;;3.60;3.40;;;18.70;39.60;;;;;;5001467;28;20216;-64
2022/03/17 05:26:58;;;;;;;3.60;3.40;;;18.70;38.80;;;;;;4994951;28;20220;-63
2022/03/17 05:29:23;;;;;;;3.90;3.70;;;18.70;38.80;;;;;;5000733;28;20522;-63
2022/03/17 05:31:49;;;;;;;3.37;3.17;;;18.70;38.80;;;;;;4997393;28;20236;-63
2022/03/17 05:34:15;;;;;;;3.70;3.50;;;18.70;38.70;;;;;;5001374;28;20228;-65
2022/03/17 05:36:40;;;;;;;4.27;3.73;;;18.70;38.80;;;;;;4998849;28;20266;-67
2022/03/17 05:39:06;;;;;;;2.97;2.80;;;18.70;38.70;;;;;;5001342;28;20303;-65
2022/03/17 05:41:31;;;;;;;4.13;3.83;;;18.70;38.70;;;;;;5004870;28;20271;-64
2022/03/17 05:43:57;;;;;;;3.70;3.50;;;18.70;38.60;;;;;;4999189;28;20221;-64
2022/03/17 05:46:25;;;;;;;5.40;3.47;;;18.80;38.50;;;;;;4999468;28;20226;-64
2022/03/17 05:48:51;;;;;;;3.70;3.40;;;18.80;38.30;;;;;;4996770;28;20299;-63
2022/03/17 05:51:16;;;;;;;2.80;2.70;;;18.80;38.30;;;;;;4998278;28;20445;-63
2022/03/17 05:53:42;;;;;;;3.03;2.83;;;18.80;38.20;;;;;;4999063;28;20425;-63
2022/03/17 05:56:08;;;;;;;3.23;3.03;;;18.80;38.20;;;;;;4998388;28;20591;-62
2022/03/17 05:58:33;;;;;;;3.40;3.20;;;18.80;38.20;;;;;;5001096;28;20222;-63
2022/03/17 06:00:59;;;;;;;3.10;2.90;;;18.90;38.20;;;;;;5001058;28;20213;-62
2022/03/17 06:03:25;;;;;;;3.53;3.23;;;18.90;38.20;;;;;;4999063;28;20286;-62
2022/03/17 06:05:51;;;;;;;3.10;2.90;;;18.90;38.20;;;;;;4998587;28;20458;-61
2022/03/17 06:08:17;;;;;;;3.00;2.80;;;18.90;38.30;;;;;;4998848;28;20420;-62
2022/03/17 06:10:42;;;;;;;3.70;3.50;;;18.80;38.20;;;;;;5000220;28;20216;-62
2022/03/17 06:13:08;;;;;;;3.43;3.23;;;18.80;38.20;;;;;;4995974;28;20591;-63
2022/03/17 06:15:35;;;;;;;2.83;2.73;;;18.90;38.30;;;;;;5002200;28;20669;-64
2022/03/17 06:18:03;;;;;;;3.30;3.10;;;18.80;38.30;;;;;;5004747;28;20709;-61
2022/03/17 06:20:30;;;;;;;3.40;3.20;;;18.80;38.20;;;;;;4998701;28;20453;-65
2022/03/17 06:22:58;;;;;;;2.70;2.50;;;18.80;38.30;;;;;;5001877;28;20939;-63
2022/03/17 06:25:26;;;;;;;3.30;3.10;;;18.80;38.30;;;;;;4997236;28;20453;-62
2022/03/17 06:27:52;;;;;;;3.70;3.40;;;18.80;38.30;;;;;;4997426;28;20447;-64
2022/03/17 06:30:24;;;;;;;3.10;2.90;;;18.80;38.40;;;;;;5001849;28;20452;-65
2022/03/17 06:32:51;;;;;;;3.60;3.30;;;18.80;38.50;;;;;;5000004;28;20266;-63
2022/03/17 06:35:19;;;;;;;3.20;3.00;;;18.80;38.20;;;;;;4998128;28;20943;-63
2022/03/17 06:37:46;;;;;;;5.07;2.93;;;18.80;38.20;;;;;;4998276;28;20420;-63
2022/03/17 06:40:12;;;;;;;3.03;2.93;;;18.90;38.20;;;;;;4995381;28;20455;-62
2022/03/17 06:42:38;;;;;;;2.80;2.67;;;18.80;38.20;;;;;;4998592;28;20482;-63
2022/03/17 06:45:04;;;;;;;2.97;2.77;;;18.80;38.20;;;;;;4997343;28;20444;-62
2022/03/17 06:47:30;;;;;;;5.77;3.10;;;18.80;38.30;;;;;;4997611;28;20220;-62
2022/03/17 06:49:55;;;;;;;5.67;2.90;;;18.80;38.20;;;;;;4998527;28;21028;-62
2022/03/17 06:52:22;;;;;;;3.07;2.87;;;18.90;38.50;;;;;;4997291;28;20925;-62
2022/03/17 06:54:48;;;;;;;3.73;3.33;;;18.80;38.40;;;;;;4995107;28;20657;-61
2022/03/17 06:57:21;;;;;;;2.67;2.57;;;18.90;38.50;;;;;;4998922;28;20450;-62
2022/03/17 06:59:48;;;;;;;11.63;2.67;;;18.80;38.50;;;;;;4997129;28;20446;-62
2022/03/17 07:02:14;;;;;;;3.10;2.90;;;18.80;38.50;;;;;;4999436;28;20470;-62
2022/03/17 07:04:40;;;;;;;2.80;2.70;;;18.80;38.50;;;;;;4993842;28;20454;-60
2022/03/17 07:07:06;;;;;;;4.67;3.20;;;18.80;38.50;;;;;;4997269;28;20446;-61
2022/03/17 07:09:32;;;;;;;3.30;3.03;;;18.80;38.50;;;;;;4991542;28;20234;-62
2022/03/17 07:11:57;;;;;;;2.83;2.63;;;18.80;38.50;;;;;;4995525;28;20266;-62
2022/03/17 07:14:23;;;;;;;2.33;2.13;;;18.80;38.50;;;;;;4998523;28;20228;-62
2022/03/17 07:16:48;;;;;;;2.63;2.43;;;18.80;38.50;;;;;;4996415;28;20239;-65
2022/03/17 07:19:15;;;;;;;4.00;2.40;;;18.80;38.50;;;;;;4995858;28;20223;-65
2022/03/17 07:21:41;;;;;;;2.77;2.57;;;18.80;38.50;;;;;;4993933;28;20228;-63
2022/03/17 07:24:09;;;;;;;2.73;2.53;;;18.80;38.50;;;;;;4997444;28;20447;-61
2022/03/17 07:26:40;;;;;;;3.10;2.57;;;18.80;38.50;;;;;;5001050;28;20557;-61
2022/03/17 07:29:05;;;;;;;2.70;2.50;;;18.80;38.60;;;;;;5000397;28;20564;-62
2022/03/17 07:31:31;;;;;;;2.87;2.67;;;18.80;38.50;;;;;;5003330;28;20536;-62
2022/03/17 07:33:57;;;;;;;2.90;2.13;;;18.80;38.50;;;;;;5000107;28;20274;-62
2022/03/17 07:36:23;;;;;;;2.60;2.40;;;18.80;38.50;;;;;;4997356;28;20228;-61
2022/03/17 07:38:48;;;;;;;2.53;2.43;;;18.80;38.50;;;;;;4998304;28;20224;-62
2022/03/17 07:41:15;;;;;;;2.50;2.30;;;18.80;38.60;;;;;;4996375;28;20600;-62
2022/03/17 07:43:41;;;;;;;2.93;2.20;;;18.80;38.60;;;;;;5003330;28;20219;-61
2022/03/17 07:46:07;;;;;;;2.60;2.40;;;18.80;38.50;;;;;;4999320;28;20990;-62
2022/03/17 07:48:33;;;;;;;2.07;1.97;;;18.80;38.60;;;;;;5000182;28;20525;-61
2022/03/17 07:50:59;;;;;;;2.40;2.30;;;18.80;38.60;;;;;;5001422;28;20522;-62
2022/03/17 07:53:24;;;;;;;2.00;1.90;;;18.80;39.30;;;;;;5003973;28;20615;-62
2022/03/17 07:55:54;;;;;;;2.10;1.90;;;18.80;38.60;;;;;;5000714;28;20298;-62
2022/03/17 07:58:21;;;;;;;2.00;1.90;;;18.80;38.50;;;;;;4999159;28;20247;-61
2022/03/17 08:00:46;;;;;;;3.57;1.90;;;18.80;38.50;;;;;;5000640;28;21088;-61
2022/03/17 08:03:12;;;;;;;2.00;1.90;;;18.80;38.50;;;;;;5004325;28;20569;-60
2022/03/17 08:05:38;;;;;;;1.90;1.80;;;18.80;38.50;;;;;;5003037;28;20219;-61
2022/03/17 08:08:04;;;;;;;1.80;1.70;;;18.80;38.50;;;;;;5003981;28;20224;-61
2022/03/17 08:10:29;;;;;;;3.40;2.30;;;18.80;38.60;;;;;;5000614;28;20274;-62
2022/03/17 08:12:55;;;;;;;2.03;1.93;;;18.80;38.60;;;;;;4998851;28;20453;-62
2022/03/17 08:15:21;;;;;;;3.83;2.00;;;18.80;38.60;;;;;;5001281;28;20365;-61
2022/03/17 08:17:46;;;;;;;1.90;1.80;;;18.80;38.60;;;;;;5006030;28;20234;-63
2022/03/17 08:20:12;;;;;;;2.30;2.20;;;18.80;38.50;;;;;;4998968;28;20219;-62
2022/03/17 08:22:38;;;;;;;1.70;1.60;;;18.80;38.60;;;;;;4999546;28;20827;-61
2022/03/17 08:25:04;;;;;;;1.60;1.50;;;18.80;38.60;;;;;;5001901;28;20638;-62
2022/03/17 08:27:30;;;;;;;2.73;2.23;;;18.80;38.50;;;;;;5001833;28;21647;-62
2022/03/17 08:29:56;;;;;;;2.00;1.53;;;18.80;38.60;;;;;;5002368;28;20441;-61
2022/03/17 08:32:22;;;;;;;1.90;1.80;;;18.80;38.50;;;;;;4997862;28;20448;-62
2022/03/17 08:34:47;;;;;;;2.00;1.90;;;18.80;38.50;;;;;;4998888;28;20228;-63
2022/03/17 08:37:13;;;;;;;4.80;2.07;;;18.80;38.60;;;;;;4998370;28;20243;-61
2022/03/17 08:39:38;;;;;;;2.40;1.70;;;18.80;38.60;;;;;;4999979;28;20225;-61
2022/03/17 08:42:04;;;;;;;1.60;1.50;;;18.80;38.50;;;;;;5002951;28;20228;-61
2022/03/17 08:44:30;;;;;;;2.30;1.50;;;18.80;38.60;;;;;;5000334;28;20642;-61
2022/03/17 08:49:40;;;;;;;2.27;1.50;;;18.80;38.50;;;;;;5000702;28;20311;-61
2022/03/17 08:52:07;;;;;;;1.60;1.50;;;18.80;38.50;;;;;;5000481;28;20483;-61
2022/03/17 08:54:35;;;;;;;1.50;1.40;;;18.80;38.60;;;;;;4997552;28;20294;-61
2022/03/17 08:57:03;;;;;;;1.77;1.67;;;18.80;38.50;;;;;;4998171;28;20532;-63
2022/03/17 08:59:34;;;;;;;11.20;2.00;;;18.80;38.50;;;;;;4999864;28;20867;-63
2022/03/17 09:02:02;;;;;;;1.60;1.50;;;18.80;38.50;;;;;;5006444;28;20481;-62
2022/03/17 09:04:28;;;;;;;1.87;1.77;;;18.80;39.30;;;;;;5001422;28;20465;-62
2022/03/17 09:06:59;;;;;;;2.37;1.60;;;18.80;38.50;;;;;;5001203;28;20457;-62
2022/03/17 09:09:28;;;;;;;1.50;1.40;;;18.80;38.50;;;;;;5001822;28;20944;-61
2022/03/17 09:11:54;;;;;;;1.60;1.50;;;18.80;38.50;;;;;;4999516;28;20435;-61
2022/03/17 09:14:21;;;;;;;1.73;1.60;;;18.80;38.50;;;;;;5000877;28;20429;-61
2022/03/17 09:16:46;;;;;;;1.33;1.23;;;18.80;38.50;;;;;;4997700;28;20445;-62
2022/03/17 09:19:12;;;;;;;1.73;1.63;;;18.80;38.50;;;;;;5000403;28;20769;-62
2022/03/17 09:21:38;;;;;;;1.70;1.60;;;18.80;38.50;;;;;;4998373;28;20724;-61
2022/03/17 09:24:04;;;;;;;1.73;1.40;;;18.80;38.40;;;;;;5000147;28;20231;-61
2022/03/17 09:26:31;;;;;;;1.47;1.37;;;18.80;38.50;;;;;;5002496;28;20224;-62
2022/03/17 09:28:57;;;;;;;1.53;1.43;;;18.80;38.50;;;;;;5003221;28;20421;-61
2022/03/17 09:31:23;;;;;;;1.60;1.50;;;18.80;38.40;;;;;;4998340;28;20857;-61
2022/03/17 09:33:49;;;;;;;1.40;1.30;;;18.80;39.30;;;;;;4999361;28;20984;-62
2022/03/17 09:36:16;;;;;;;1.43;1.33;;;18.80;38.60;;;;;;4998305;28;20772;-61
2022/03/17 09:38:42;;;;;;;1.50;1.40;;;18.80;38.60;;;;;;4997150;28;20286;-61
2022/03/17 09:41:24;;;;;;;1.60;1.50;;;18.80;38.50;;;;;;5000715;28;21062;-61
2022/03/17 09:43:51;;;;;;;1.30;1.20;;;18.80;38.60;;;;;;4997339;28;20437;-61
2022/03/17 09:46:18;;;;;;;1.60;1.50;;;18.80;38.60;;;;;;5002524;28;20523;-62
2022/03/17 09:48:44;;;;;;;1.40;1.30;;;18.70;38.50;;;;;;5001627;28;20436;-61
2022/03/17 09:51:12;;;;;;;1.60;1.50;;;18.80;38.60;;;;;;5002415;28;20465;-61
2022/03/17 09:53:37;;;;;;;2.13;1.40;;;18.80;38.60;;;;;;4994494;28;20460;-61
2022/03/17 09:56:03;;;;;;;1.27;1.17;;;18.70;38.50;;;;;;4996025;28;20429;-61
2022/03/17 09:58:29;;;;;;;1.73;1.20;;;18.80;38.60;;;;;;4995737;28;20224;-61
2022/03/17 10:00:54;;;;;;;2.07;1.30;;;18.70;38.60;;;;;;4995798;28;20598;-61
2022/03/17 10:03:26;;;;;;;1.40;1.30;;;18.70;38.60;;;;;;4997809;28;20247;-61
2022/03/17 10:05:53;;;;;;;1.90;1.23;;;18.70;38.50;;;;;;4998280;28;20239;-61
2022/03/17 10:08:20;;;;;;;1.30;1.20;;;18.70;38.60;;;;;;4999349;28;20457;-61
2022/03/17 10:10:47;;;;;;;1.67;1.50;;;18.70;38.60;;;;;;4998347;28;20432;-61
2022/03/17 10:13:16;;;;;;;1.40;1.20;;;18.70;38.60;;;;;;4995023;28;20867;-61
2022/03/17 10:16:01;;;;;;;3.20;1.30;;;18.70;38.60;;;;;;5001499;28;20450;-61
2022/03/17 10:18:27;;;;;;;1.70;1.40;;;18.80;38.60;;;;;;4999594;28;20934;-62
2022/03/17 10:21:24;;;;;;;1.30;1.07;;;18.70;38.60;;;;;;4996133;28;20513;-61
2022/03/17 10:23:59;;;;;;;1.30;1.20;;;18.70;38.60;;;;;;5001461;28;20239;-62
2022/03/17 10:26:38;;;;;;;1.60;1.30;;;18.70;38.70;;;;;;4996910;28;20777;-63
2022/03/17 10:29:22;;;;;;;1.67;1.40;;;18.80;38.60;;;;;;4999786;28;20445;-61
2022/03/17 10:32:09;;;;;;;1.30;1.20;;;18.70;38.70;;;;;;4995056;28;20489;-62
2022/03/17 10:34:46;;;;;;;1.27;1.17;;;18.70;38.60;;;;;;4994469;28;20465;-63
2022/03/17 10:37:15;;;;;;;2.13;1.50;;;18.70;38.60;;;;;;4996260;28;20467;-62
2022/03/17 10:39:42;;;;;;;1.40;1.30;;;18.70;38.70;;;;;;5001279;28;21012;-61
2022/03/17 10:42:12;;;;;;;1.23;1.13;;;18.70;38.70;;;;;;5000033;28;20431;-61
2022/03/17 10:44:44;;;;;;;1.43;1.30;;;18.70;38.70;;;;;;4998124;28;20438;-61
2022/03/17 10:47:10;;;;;;;1.33;1.23;;;18.70;38.60;;;;;;4997781;28;20492;-61
2022/03/17 10:49:36;;;;;;;1.27;1.17;;;18.70;38.70;;;;;;4997225;28;20468;-61
2022/03/17 10:52:02;;;;;;;1.10;1.00;;;18.70;38.70;;;;;;4998474;28;21061;-61
2022/03/17 10:54:28;;;;;;;1.20;1.10;;;18.70;38.70;;;;;;4997803;28;20456;-61
2022/03/17 10:57:11;;;;;;;1.20;1.10;;;18.70;38.70;;;;;;5000628;28;20505;-61
2022/03/17 10:59:39;;;;;;;1.47;1.10;;;18.70;38.70;;;;;;4999418;28;20855;-61
2022/03/17 11:02:08;;;;;;;1.17;1.07;;;18.70;38.70;;;;;;4997895;28;20475;-60
2022/03/17 11:04:36;;;;;;;1.10;1.00;;;18.70;38.70;;;;;;4997389;28;20464;-60
2022/03/17 11:07:05;;;;;;;1.10;1.00;;;18.70;38.70;;;;;;5001556;28;20457;-61
2022/03/17 11:09:32;;;;;;;1.43;1.10;;;18.70;38.60;;;;;;5002143;28;20460;-60
2022/03/17 11:11:58;;;;;;;1.07;0.97;;;18.70;38.70;;;;;;5002591;28;20466;-61
2022/03/17 11:14:24;;;;;;;2.17;1.10;;;18.70;38.70;;;;;;4998225;28;20462;-60
2022/03/17 11:16:51;;;;;;;1.20;1.10;;;18.70;38.70;;;;;;5002944;28;20231;-61
2022/03/17 11:19:19;;;;;;;1.20;1.10;;;18.70;38.70;;;;;;5005872;28;20453;-61
2022/03/17 11:21:48;;;;;;;1.30;1.20;;;18.70;38.70;;;;;;5003585;28;20478;-61
2022/03/17 11:24:20;;;;;;;1.13;1.03;;;18.70;38.80;;;;;;5004847;28;20433;-61
2022/03/17 11:26:47;;;;;;;1.30;1.20;;;18.70;38.70;;;;;;5001180;28;20449;-61
2022/03/17 11:29:15;;;;;;;2.10;1.10;;;18.70;38.70;;;;;;5006001;28;20430;-61
2022/03/17 11:32:01;;;;;;;1.20;1.10;;;18.70;38.70;;;;;;4999430;28;20432;-61
2022/03/17 11:35:04;;;;;;;1.20;1.00;;;18.60;38.60;;;;;;5005787;28;20866;-61
2022/03/17 11:37:33;;;;;;;1.30;1.20;;;18.60;38.70;;;;;;5001869;28;20443;-61
2022/03/17 11:40:06;;;;;;;1.23;1.10;;;18.60;38.70;;;;;;5005555;28;20447;-61
2022/03/17 11:42:37;;;;;;;1.30;1.20;;;18.60;38.70;;;;;;5000037;28;20983;-61
2022/03/17 11:45:31;;;;;;;1.10;1.00;;;18.60;38.70;;;;;;5000206;28;20920;-61
2022/03/17 11:47:59;;;;;;;1.33;1.23;;;18.60;38.70;;;;;;4999056;28;20815;-61
2022/03/17 11:50:42;;;;;;;1.50;1.40;;;18.60;38.70;;;;;;5002373;28;20441;-61
2022/03/17 11:53:14;;;;;;;1.10;1.00;;;18.60;38.70;;;;;;5005502;28;20423;-61
2022/03/17 11:55:42;;;;;;;1.47;1.20;;;18.60;38.70;;;;;;5002297;28;20543;-61
2022/03/17 11:58:20;;;;;;;1.20;1.07;;;18.60;38.70;;;;;;4999563;28;20475;-60
2022/03/17 12:00:46;;;;;;;2.20;1.13;;;18.60;38.70;;;;;;5006801;28;20508;-61
2022/03/17 12:03:13;;;;;;;1.30;1.20;;;18.60;38.70;;;;;;4997630;28;20494;-61
2022/03/17 12:05:39;;;;;;;1.30;1.20;;;18.70;38.90;;;;;;5000114;28;20427;-61
2022/03/17 12:08:05;;;;;;;1.20;1.10;;;18.60;38.70;;;;;;4999364;28;20477;-61
2022/03/17 12:11:22;;;;;;;1.90;1.07;;;18.60;38.70;;;;;;5003227;28;20906;-61
2022/03/17 12:14:19;;;;;;;0.93;0.87;;;18.70;38.80;;;;;;4973916;28;20226;-61
2022/03/17 12:16:48;;;;;;;1.07;0.97;;;18.60;38.70;;;;;;4982991;28;20498;-61
2022/03/17 12:19:34;;;;;;;1.20;1.10;;;18.60;38.70;;;;;;4973002;28;20546;-61
2022/03/17 12:22:03;;;;;;;1.80;1.10;;;18.60;38.70;;;;;;4976731;28;21111;-61
2022/03/17 12:24:35;;;;;;;1.50;1.30;;;18.60;38.70;;;;;;4976564;28;20479;-61
2022/03/17 12:27:22;;;;;;;1.77;1.30;;;18.60;38.70;;;;;;4976010;28;20887;-61
2022/03/17 12:29:53;;;;;;;0.97;0.93;;;18.60;38.70;;;;;;4978955;28;20449;-61
2022/03/17 12:32:20;;;;;;;1.80;1.20;;;18.60;38.70;;;;;;4974655;28;20474;-62
2022/03/17 12:34:48;;;;;;;1.10;1.00;;;18.60;38.70;;;;;;4976564;28;20524;-65
2022/03/17 12:37:15;;;;;;;1.67;1.10;;;18.60;38.70;;;;;;4982732;28;20913;-62
2022/03/17 12:39:41;;;;;;;4.63;1.40;;;18.60;38.70;;;;;;4980662;28;20425;-65
2022/03/17 12:42:18;;;;;;;1.10;1.00;;;18.60;38.70;;;;;;4980087;28;20477;-64
2022/03/17 12:45:03;;;;;;;1.07;0.97;;;18.60;38.60;;;;;;4980248;28;20444;-63
2022/03/17 12:47:30;;;;;;;1.50;1.00;;;18.70;38.70;;;;;;4982787;28;20453;-62
2022/03/17 12:49:58;;;;;;;1.23;1.13;;;18.70;38.70;;;;;;4978900;28;20922;-63
2022/03/17 12:52:27;;;;;;;1.20;1.10;;;18.70;38.70;;;;;;4979548;28;20453;-62
2022/03/17 12:54:55;;;;;;;1.07;0.97;;;18.70;38.70;;;;;;4978724;28;20444;-62
2022/03/17 12:57:23;;;;;;;1.20;1.10;;;18.70;38.70;;;;;;4982016;28;20450;-62
2022/03/17 12:59:48;;;;;;;1.03;0.93;;;18.70;38.60;;;;;;4978031;28;20438;-62
2022/03/17 13:02:17;;;;;;;1.20;1.10;;;18.70;38.60;;;;;;4979318;28;20470;-64
2022/03/17 13:04:44;;;;;;;1.37;1.00;;;18.70;38.60;;;;;;4979064;28;20216;-64